sensor_id;sensor_type;location;lat;lon;timestamp;P1;durP1;ratioP1;P2;durP2;ratioP2
52816;SDS011;38687;43.330;21.924;2022-08-19T00:01:09;6.72;;;4.13;;
52816;SDS011;38687;43.330;21.924;2022-08-19T00:03:35;4.55;;;4.15;;
52816;SDS011;38687;43.330;21.924;2022-08-19T00:06:00;5.35;;;3.92;;
52816;SDS011;38687;43.330;21.924;2022-08-19T00:08:26;4.47;;;3.78;;
52816;SDS011;38687;43.330;21.924;2022-08-19T00:10:51;6.50;;;3.65;;
52816;SDS011;38687;43.330;21.924;2022-08-19T00:13:17;5.18;;;3.75;;
52816;SDS011;38687;43.330;21.924;2022-08-19T00:15:43;5.55;;;3.50;;
52816;SDS011;38687;43.330;21.924;2022-08-19T00:18:09;5.68;;;3.88;;
52816;SDS011;38687;43.330;21.924;2022-08-19T00:20:35;4.00;;;3.60;;
52816;SDS011;38687;43.330;21.924;2022-08-19T00:23:03;5.00;;;3.78;;
52816;SDS011;38687;43.330;21.924;2022-08-19T00:25:28;4.25;;;3.58;;
52816;SDS011;38687;43.330;21.924;2022-08-19T00:27:54;3.72;;;3.42;;
52816;SDS011;38687;43.330;21.924;2022-08-19T00:30:19;3.55;;;3.08;;
52816;SDS011;38687;43.330;21.924;2022-08-19T00:32:45;4.28;;;3.88;;
52816;SDS011;38687;43.330;21.924;2022-08-19T00:35:10;3.50;;;3.08;;
52816;SDS011;38687;43.330;21.924;2022-08-19T00:37:36;3.78;;;3.40;;
52816;SDS011;38687;43.330;21.924;2022-08-19T00:40:03;4.88;;;3.50;;
52816;SDS011;38687;43.330;21.924;2022-08-19T00:42:33;5.03;;;3.80;;
52816;SDS011;38687;43.330;21.924;2022-08-19T00:44:59;4.25;;;3.85;;
52816;SDS011;38687;43.330;21.924;2022-08-19T00:47:25;4.32;;;3.63;;
52816;SDS011;38687;43.330;21.924;2022-08-19T00:49:53;4.85;;;3.38;;
52816;SDS011;38687;43.330;21.924;2022-08-19T00:52:25;4.63;;;3.40;;
52816;SDS011;38687;43.330;21.924;2022-08-19T00:54:54;3.90;;;3.50;;
52816;SDS011;38687;43.330;21.924;2022-08-19T00:57:22;4.50;;;3.78;;
52816;SDS011;38687;43.330;21.924;2022-08-19T00:59:51;3.83;;;3.45;;
52816;SDS011;38687;43.330;21.924;2022-08-19T01:02:18;3.75;;;3.45;;
52816;SDS011;38687;43.330;21.924;2022-08-19T01:04:43;5.72;;;3.63;;
52816;SDS011;38687;43.330;21.924;2022-08-19T01:07:08;4.03;;;3.63;;
52816;SDS011;38687;43.330;21.924;2022-08-19T01:09:34;4.40;;;3.83;;
52816;SDS011;38687;43.330;21.924;2022-08-19T01:11:59;4.50;;;3.58;;
52816;SDS011;38687;43.330;21.924;2022-08-19T01:14:25;6.38;;;3.90;;
52816;SDS011;38687;43.330;21.924;2022-08-19T01:16:51;5.75;;;4.07;;
52816;SDS011;38687;43.330;21.924;2022-08-19T01:19:29;5.13;;;3.65;;
52816;SDS011;38687;43.330;21.924;2022-08-19T01:22:01;5.47;;;4.00;;
52816;SDS011;38687;43.330;21.924;2022-08-19T01:24:29;4.80;;;4.18;;
52816;SDS011;38687;43.330;21.924;2022-08-19T01:26:55;4.47;;;3.80;;
52816;SDS011;38687;43.330;21.924;2022-08-19T01:29:21;7.88;;;3.80;;
52816;SDS011;38687;43.330;21.924;2022-08-19T01:31:47;3.88;;;3.33;;
52816;SDS011;38687;43.330;21.924;2022-08-19T01:34:14;6.32;;;4.22;;
52816;SDS011;38687;43.330;21.924;2022-08-19T01:36:41;8.25;;;4.18;;
52816;SDS011;38687;43.330;21.924;2022-08-19T01:39:22;6.28;;;4.03;;
52816;SDS011;38687;43.330;21.924;2022-08-19T01:41:49;6.78;;;5.00;;
52816;SDS011;38687;43.330;21.924;2022-08-19T01:44:15;9.05;;;4.32;;
52816;SDS011;38687;43.330;21.924;2022-08-19T01:46:41;5.55;;;4.20;;
52816;SDS011;38687;43.330;21.924;2022-08-19T01:49:07;6.68;;;4.20;;
52816;SDS011;38687;43.330;21.924;2022-08-19T01:51:33;5.95;;;4.20;;
52816;SDS011;38687;43.330;21.924;2022-08-19T01:53:58;5.72;;;4.38;;
52816;SDS011;38687;43.330;21.924;2022-08-19T01:56:24;4.30;;;3.90;;
52816;SDS011;38687;43.330;21.924;2022-08-19T01:58:54;5.40;;;4.45;;
52816;SDS011;38687;43.330;21.924;2022-08-19T02:01:22;4.75;;;3.92;;
52816;SDS011;38687;43.330;21.924;2022-08-19T02:03:47;4.65;;;3.78;;
52816;SDS011;38687;43.330;21.924;2022-08-19T02:06:13;4.95;;;4.43;;
52816;SDS011;38687;43.330;21.924;2022-08-19T02:08:39;5.85;;;3.90;;
52816;SDS011;38687;43.330;21.924;2022-08-19T02:11:05;5.72;;;3.75;;
52816;SDS011;38687;43.330;21.924;2022-08-19T02:13:31;4.72;;;3.70;;
52816;SDS011;38687;43.330;21.924;2022-08-19T02:15:57;5.38;;;4.18;;
52816;SDS011;38687;43.330;21.924;2022-08-19T02:18:23;4.03;;;3.63;;
52816;SDS011;38687;43.330;21.924;2022-08-19T02:20:48;4.13;;;3.83;;
52816;SDS011;38687;43.330;21.924;2022-08-19T02:23:14;5.53;;;3.88;;
52816;SDS011;38687;43.330;21.924;2022-08-19T02:25:44;3.75;;;3.45;;
52816;SDS011;38687;43.330;21.924;2022-08-19T02:28:10;5.95;;;4.60;;
52816;SDS011;38687;43.330;21.924;2022-08-19T02:30:36;6.22;;;3.92;;
52816;SDS011;38687;43.330;21.924;2022-08-19T02:33:04;4.70;;;3.72;;
52816;SDS011;38687;43.330;21.924;2022-08-19T02:35:30;4.07;;;3.72;;
52816;SDS011;38687;43.330;21.924;2022-08-19T02:37:56;6.03;;;4.15;;
52816;SDS011;38687;43.330;21.924;2022-08-19T02:40:39;5.30;;;4.25;;
52816;SDS011;38687;43.330;21.924;2022-08-19T02:43:05;4.50;;;3.85;;
52816;SDS011;38687;43.330;21.924;2022-08-19T02:45:33;5.13;;;4.38;;
52816;SDS011;38687;43.330;21.924;2022-08-19T02:47:59;5.30;;;4.80;;
52816;SDS011;38687;43.330;21.924;2022-08-19T02:50:25;4.28;;;3.85;;
52816;SDS011;38687;43.330;21.924;2022-08-19T02:52:50;5.93;;;3.95;;
52816;SDS011;38687;43.330;21.924;2022-08-19T02:55:16;4.90;;;3.63;;
52816;SDS011;38687;43.330;21.924;2022-08-19T02:57:41;6.78;;;4.50;;
52816;SDS011;38687;43.330;21.924;2022-08-19T03:00:07;5.93;;;3.88;;
52816;SDS011;38687;43.330;21.924;2022-08-19T03:02:36;4.55;;;4.15;;
52816;SDS011;38687;43.330;21.924;2022-08-19T03:05:02;6.68;;;3.83;;
52816;SDS011;38687;43.330;21.924;2022-08-19T03:07:28;4.82;;;4.10;;
52816;SDS011;38687;43.330;21.924;2022-08-19T03:09:55;7.82;;;4.35;;
52816;SDS011;38687;43.330;21.924;2022-08-19T03:12:20;6.03;;;4.32;;
52816;SDS011;38687;43.330;21.924;2022-08-19T03:14:46;4.88;;;4.38;;
52816;SDS011;38687;43.330;21.924;2022-08-19T03:17:11;5.93;;;4.70;;
52816;SDS011;38687;43.330;21.924;2022-08-19T03:19:37;6.95;;;4.32;;
52816;SDS011;38687;43.330;21.924;2022-08-19T03:22:03;6.35;;;5.15;;
52816;SDS011;38687;43.330;21.924;2022-08-19T03:24:30;9.05;;;5.22;;
52816;SDS011;38687;43.330;21.924;2022-08-19T03:26:57;10.95;;;6.00;;
52816;SDS011;38687;43.330;21.924;2022-08-19T03:29:24;6.80;;;5.32;;
52816;SDS011;38687;43.330;21.924;2022-08-19T03:31:50;6.63;;;5.28;;
52816;SDS011;38687;43.330;21.924;2022-08-19T03:34:28;5.78;;;4.82;;
52816;SDS011;38687;43.330;21.924;2022-08-19T03:36:55;6.35;;;4.70;;
52816;SDS011;38687;43.330;21.924;2022-08-19T03:39:24;4.30;;;3.90;;
52816;SDS011;38687;43.330;21.924;2022-08-19T03:41:50;5.38;;;4.50;;
52816;SDS011;38687;43.330;21.924;2022-08-19T03:44:18;5.63;;;4.57;;
52816;SDS011;38687;43.330;21.924;2022-08-19T03:46:52;5.00;;;4.50;;
52816;SDS011;38687;43.330;21.924;2022-08-19T03:49:23;4.82;;;4.28;;
52816;SDS011;38687;43.330;21.924;2022-08-19T03:51:50;5.97;;;4.18;;
52816;SDS011;38687;43.330;21.924;2022-08-19T03:54:17;7.93;;;4.55;;
52816;SDS011;38687;43.330;21.924;2022-08-19T03:56:44;5.78;;;4.13;;
52816;SDS011;38687;43.330;21.924;2022-08-19T03:59:13;5.90;;;4.18;;
52816;SDS011;38687;43.330;21.924;2022-08-19T04:01:40;8.40;;;4.65;;
52816;SDS011;38687;43.330;21.924;2022-08-19T04:04:06;5.90;;;4.10;;
52816;SDS011;38687;43.330;21.924;2022-08-19T04:06:32;5.72;;;4.45;;
52816;SDS011;38687;43.330;21.924;2022-08-19T04:09:01;5.32;;;4.28;;
52816;SDS011;38687;43.330;21.924;2022-08-19T04:11:29;6.55;;;4.32;;
52816;SDS011;38687;43.330;21.924;2022-08-19T04:13:57;5.22;;;4.53;;
52816;SDS011;38687;43.330;21.924;2022-08-19T04:16:23;5.25;;;4.75;;
52816;SDS011;38687;43.330;21.924;2022-08-19T04:18:49;6.32;;;5.13;;
52816;SDS011;38687;43.330;21.924;2022-08-19T04:21:19;7.82;;;4.82;;
52816;SDS011;38687;43.330;21.924;2022-08-19T04:23:49;5.85;;;4.25;;
52816;SDS011;38687;43.330;21.924;2022-08-19T04:26:16;7.93;;;4.72;;
52816;SDS011;38687;43.330;21.924;2022-08-19T04:28:44;7.05;;;4.57;;
52816;SDS011;38687;43.330;21.924;2022-08-19T04:31:15;6.05;;;5.18;;
52816;SDS011;38687;43.330;21.924;2022-08-19T04:33:42;5.65;;;5.10;;
52816;SDS011;38687;43.330;21.924;2022-08-19T04:36:08;5.28;;;4.32;;
52816;SDS011;38687;43.330;21.924;2022-08-19T04:38:41;6.55;;;4.75;;
52816;SDS011;38687;43.330;21.924;2022-08-19T04:41:06;4.85;;;4.00;;
52816;SDS011;38687;43.330;21.924;2022-08-19T04:43:50;5.93;;;4.30;;
52816;SDS011;38687;43.330;21.924;2022-08-19T04:46:16;4.78;;;4.07;;
52816;SDS011;38687;43.330;21.924;2022-08-19T04:48:42;5.68;;;4.80;;
52816;SDS011;38687;43.330;21.924;2022-08-19T04:51:09;4.65;;;3.97;;
52816;SDS011;38687;43.330;21.924;2022-08-19T04:53:37;5.22;;;4.63;;
52816;SDS011;38687;43.330;21.924;2022-08-19T04:56:13;4.60;;;4.07;;
52816;SDS011;38687;43.330;21.924;2022-08-19T04:58:41;6.43;;;4.38;;
52816;SDS011;38687;43.330;21.924;2022-08-19T05:01:08;4.22;;;3.75;;
52816;SDS011;38687;43.330;21.924;2022-08-19T05:03:35;6.63;;;4.50;;
52816;SDS011;38687;43.330;21.924;2022-08-19T05:06:05;6.65;;;4.22;;
52816;SDS011;38687;43.330;21.924;2022-08-19T05:08:33;5.22;;;4.50;;
52816;SDS011;38687;43.330;21.924;2022-08-19T05:11:01;4.72;;;3.75;;
52816;SDS011;38687;43.330;21.924;2022-08-19T05:13:33;6.88;;;4.45;;
52816;SDS011;38687;43.330;21.924;2022-08-19T05:15:58;6.22;;;4.60;;
52816;SDS011;38687;43.330;21.924;2022-08-19T05:18:24;8.20;;;4.53;;
52816;SDS011;38687;43.330;21.924;2022-08-19T05:21:13;7.22;;;4.20;;
52816;SDS011;38687;43.330;21.924;2022-08-19T05:23:59;4.18;;;3.75;;
52816;SDS011;38687;43.330;21.924;2022-08-19T05:26:24;4.18;;;3.75;;
52816;SDS011;38687;43.330;21.924;2022-08-19T05:28:51;5.20;;;3.80;;
52816;SDS011;38687;43.330;21.924;2022-08-19T05:31:17;4.28;;;3.88;;
52816;SDS011;38687;43.330;21.924;2022-08-19T05:33:43;5.40;;;3.97;;
52816;SDS011;38687;43.330;21.924;2022-08-19T05:36:08;7.47;;;4.13;;
52816;SDS011;38687;43.330;21.924;2022-08-19T05:38:34;6.35;;;4.03;;
52816;SDS011;38687;43.330;21.924;2022-08-19T05:41:01;4.00;;;3.63;;
52816;SDS011;38687;43.330;21.924;2022-08-19T05:43:32;10.98;;;4.70;;
52816;SDS011;38687;43.330;21.924;2022-08-19T05:45:57;5.03;;;3.90;;
52816;SDS011;38687;43.330;21.924;2022-08-19T05:48:23;6.30;;;3.83;;
52816;SDS011;38687;43.330;21.924;2022-08-19T05:50:48;6.90;;;3.67;;
52816;SDS011;38687;43.330;21.924;2022-08-19T05:53:15;5.13;;;4.15;;
52816;SDS011;38687;43.330;21.924;2022-08-19T05:55:41;5.90;;;3.90;;
52816;SDS011;38687;43.330;21.924;2022-08-19T05:58:07;4.43;;;4.03;;
52816;SDS011;38687;43.330;21.924;2022-08-19T06:00:32;5.40;;;4.82;;
52816;SDS011;38687;43.330;21.924;2022-08-19T06:02:59;5.53;;;4.97;;
52816;SDS011;38687;43.330;21.924;2022-08-19T06:05:28;4.88;;;4.15;;
52816;SDS011;38687;43.330;21.924;2022-08-19T06:07:54;5.70;;;4.97;;
52816;SDS011;38687;43.330;21.924;2022-08-19T06:10:19;7.50;;;4.88;;
52816;SDS011;38687;43.330;21.924;2022-08-19T06:12:46;5.85;;;3.85;;
52816;SDS011;38687;43.330;21.924;2022-08-19T06:15:12;4.10;;;3.70;;
52816;SDS011;38687;43.330;21.924;2022-08-19T06:17:38;6.78;;;4.15;;
52816;SDS011;38687;43.330;21.924;2022-08-19T06:20:08;8.98;;;4.55;;
52816;SDS011;38687;43.330;21.924;2022-08-19T06:22:42;5.50;;;3.72;;
52816;SDS011;38687;43.330;21.924;2022-08-19T06:25:09;6.40;;;4.50;;
52816;SDS011;38687;43.330;21.924;2022-08-19T06:27:35;6.50;;;4.57;;
52816;SDS011;38687;43.330;21.924;2022-08-19T06:30:01;8.02;;;4.22;;
52816;SDS011;38687;43.330;21.924;2022-08-19T06:32:27;5.43;;;3.90;;
52816;SDS011;38687;43.330;21.924;2022-08-19T06:34:52;6.45;;;4.78;;
52816;SDS011;38687;43.330;21.924;2022-08-19T06:37:18;4.97;;;4.00;;
52816;SDS011;38687;43.330;21.924;2022-08-19T06:39:44;3.95;;;3.38;;
52816;SDS011;38687;43.330;21.924;2022-08-19T06:42:10;4.32;;;3.50;;
52816;SDS011;38687;43.330;21.924;2022-08-19T06:44:39;5.18;;;4.00;;
52816;SDS011;38687;43.330;21.924;2022-08-19T06:47:07;5.82;;;4.05;;
52816;SDS011;38687;43.330;21.924;2022-08-19T06:49:34;4.78;;;4.32;;
52816;SDS011;38687;43.330;21.924;2022-08-19T06:52:00;7.68;;;4.80;;
52816;SDS011;38687;43.330;21.924;2022-08-19T06:54:26;7.38;;;3.80;;
52816;SDS011;38687;43.330;21.924;2022-08-19T06:56:54;4.35;;;3.85;;
52816;SDS011;38687;43.330;21.924;2022-08-19T06:59:21;5.97;;;4.20;;
52816;SDS011;38687;43.330;21.924;2022-08-19T07:01:53;4.32;;;3.60;;
52816;SDS011;38687;43.330;21.924;2022-08-19T07:04:23;4.80;;;3.67;;
52816;SDS011;38687;43.330;21.924;2022-08-19T07:06:52;5.93;;;3.88;;
52816;SDS011;38687;43.330;21.924;2022-08-19T07:09:25;6.88;;;4.13;;
52816;SDS011;38687;43.330;21.924;2022-08-19T07:11:51;4.40;;;3.67;;
52816;SDS011;38687;43.330;21.924;2022-08-19T07:14:18;4.03;;;3.47;;
52816;SDS011;38687;43.330;21.924;2022-08-19T07:16:48;5.90;;;3.63;;
52816;SDS011;38687;43.330;21.924;2022-08-19T07:19:15;4.63;;;3.80;;
52816;SDS011;38687;43.330;21.924;2022-08-19T07:21:41;5.78;;;3.45;;
52816;SDS011;38687;43.330;21.924;2022-08-19T07:24:07;4.07;;;3.65;;
52816;SDS011;38687;43.330;21.924;2022-08-19T07:26:35;4.35;;;3.95;;
52816;SDS011;38687;43.330;21.924;2022-08-19T07:29:04;5.88;;;3.88;;
52816;SDS011;38687;43.330;21.924;2022-08-19T07:31:30;3.70;;;3.40;;
52816;SDS011;38687;43.330;21.924;2022-08-19T07:33:57;4.45;;;3.80;;
52816;SDS011;38687;43.330;21.924;2022-08-19T07:36:23;4.30;;;3.83;;
52816;SDS011;38687;43.330;21.924;2022-08-19T07:38:51;4.30;;;3.90;;
52816;SDS011;38687;43.330;21.924;2022-08-19T07:41:21;4.45;;;3.58;;
52816;SDS011;38687;43.330;21.924;2022-08-19T07:43:47;4.00;;;3.70;;
52816;SDS011;38687;43.330;21.924;2022-08-19T07:46:14;5.85;;;3.50;;
52816;SDS011;38687;43.330;21.924;2022-08-19T07:48:43;4.20;;;3.83;;
52816;SDS011;38687;43.330;21.924;2022-08-19T07:51:14;5.05;;;3.28;;
52816;SDS011;38687;43.330;21.924;2022-08-19T07:53:42;4.05;;;3.67;;
52816;SDS011;38687;43.330;21.924;2022-08-19T07:56:09;4.63;;;4.22;;
52816;SDS011;38687;43.330;21.924;2022-08-19T07:58:38;5.25;;;4.03;;
52816;SDS011;38687;43.330;21.924;2022-08-19T08:01:05;4.47;;;3.63;;
52816;SDS011;38687;43.330;21.924;2022-08-19T08:03:31;4.20;;;3.80;;
52816;SDS011;38687;43.330;21.924;2022-08-19T08:06:16;4.22;;;3.83;;
52816;SDS011;38687;43.330;21.924;2022-08-19T08:09:00;5.05;;;3.53;;
52816;SDS011;38687;43.330;21.924;2022-08-19T08:11:46;5.05;;;3.83;;
52816;SDS011;38687;43.330;21.924;2022-08-19T08:14:22;9.75;;;4.63;;
52816;SDS011;38687;43.330;21.924;2022-08-19T08:16:49;4.53;;;4.13;;
52816;SDS011;38687;43.330;21.924;2022-08-19T08:19:16;5.47;;;4.43;;
52816;SDS011;38687;43.330;21.924;2022-08-19T08:21:44;4.25;;;3.70;;
52816;SDS011;38687;43.330;21.924;2022-08-19T08:24:09;3.88;;;3.47;;
52816;SDS011;38687;43.330;21.924;2022-08-19T08:26:35;4.22;;;3.83;;
52816;SDS011;38687;43.330;21.924;2022-08-19T08:29:01;3.85;;;3.45;;
52816;SDS011;38687;43.330;21.924;2022-08-19T08:31:27;4.32;;;3.80;;
52816;SDS011;38687;43.330;21.924;2022-08-19T08:33:53;3.72;;;3.42;;
52816;SDS011;38687;43.330;21.924;2022-08-19T08:36:18;4.05;;;3.75;;
52816;SDS011;38687;43.330;21.924;2022-08-19T08:38:44;3.75;;;3.45;;
52816;SDS011;38687;43.330;21.924;2022-08-19T08:43:53;3.95;;;3.65;;
52816;SDS011;38687;43.330;21.924;2022-08-19T08:46:30;4.25;;;3.80;;
52816;SDS011;38687;43.330;21.924;2022-08-19T08:49:20;4.60;;;3.55;;
52816;SDS011;38687;43.330;21.924;2022-08-19T08:52:20;5.38;;;3.55;;
52816;SDS011;38687;43.330;21.924;2022-08-19T08:54:46;5.03;;;3.50;;
52816;SDS011;38687;43.330;21.924;2022-08-19T08:57:15;3.65;;;3.35;;
52816;SDS011;38687;43.330;21.924;2022-08-19T08:59:45;5.72;;;3.55;;
52816;SDS011;38687;43.330;21.924;2022-08-19T09:02:15;4.05;;;3.75;;
52816;SDS011;38687;43.330;21.924;2022-08-19T09:04:41;5.05;;;3.65;;
52816;SDS011;38687;43.330;21.924;2022-08-19T09:09:48;4.25;;;3.85;;
52816;SDS011;38687;43.330;21.924;2022-08-19T09:15:01;5.30;;;3.50;;
52816;SDS011;38687;43.330;21.924;2022-08-19T09:17:33;3.65;;;3.20;;
52816;SDS011;38687;43.330;21.924;2022-08-19T09:22:31;6.90;;;3.70;;
52816;SDS011;38687;43.330;21.924;2022-08-19T09:24:57;4.93;;;3.75;;
52816;SDS011;38687;43.330;21.924;2022-08-19T09:27:24;3.55;;;3.20;;
52816;SDS011;38687;43.330;21.924;2022-08-19T09:29:50;5.47;;;3.80;;
52816;SDS011;38687;43.330;21.924;2022-08-19T09:32:17;4.65;;;3.72;;
52816;SDS011;38687;43.330;21.924;2022-08-19T09:34:43;4.35;;;3.70;;
52816;SDS011;38687;43.330;21.924;2022-08-19T09:37:09;7.03;;;3.88;;
52816;SDS011;38687;43.330;21.924;2022-08-19T09:39:35;4.20;;;3.30;;
52816;SDS011;38687;43.330;21.924;2022-08-19T09:42:00;4.78;;;3.65;;
52816;SDS011;38687;43.330;21.924;2022-08-19T09:44:28;3.78;;;3.47;;
52816;SDS011;38687;43.330;21.924;2022-08-19T09:46:54;5.28;;;3.55;;
52816;SDS011;38687;43.330;21.924;2022-08-19T09:49:19;4.95;;;4.18;;
52816;SDS011;38687;43.330;21.924;2022-08-19T09:51:49;5.70;;;4.53;;
52816;SDS011;38687;43.330;21.924;2022-08-19T09:54:15;5.80;;;4.57;;
52816;SDS011;38687;43.330;21.924;2022-08-19T09:56:40;5.80;;;4.22;;
52816;SDS011;38687;43.330;21.924;2022-08-19T09:59:06;8.45;;;4.70;;
52816;SDS011;38687;43.330;21.924;2022-08-19T10:01:31;4.60;;;4.20;;
52816;SDS011;38687;43.330;21.924;2022-08-19T10:03:58;5.22;;;4.50;;
52816;SDS011;38687;43.330;21.924;2022-08-19T10:06:26;5.35;;;4.45;;
52816;SDS011;38687;43.330;21.924;2022-08-19T10:09:03;4.70;;;4.22;;
52816;SDS011;38687;43.330;21.924;2022-08-19T10:11:31;5.75;;;5.18;;
52816;SDS011;38687;43.330;21.924;2022-08-19T10:13:57;6.28;;;4.35;;
52816;SDS011;38687;43.330;21.924;2022-08-19T10:16:24;4.55;;;4.15;;
52816;SDS011;38687;43.330;21.924;2022-08-19T10:18:50;6.07;;;4.13;;
52816;SDS011;38687;43.330;21.924;2022-08-19T10:21:17;5.53;;;4.38;;
52816;SDS011;38687;43.330;21.924;2022-08-19T10:23:48;5.13;;;4.70;;
52816;SDS011;38687;43.330;21.924;2022-08-19T10:26:17;8.50;;;5.10;;
52816;SDS011;38687;43.330;21.924;2022-08-19T10:28:47;7.20;;;4.85;;
52816;SDS011;38687;43.330;21.924;2022-08-19T10:31:17;6.53;;;4.30;;
52816;SDS011;38687;43.330;21.924;2022-08-19T10:33:47;6.03;;;4.57;;
52816;SDS011;38687;43.330;21.924;2022-08-19T10:36:14;5.65;;;4.00;;
52816;SDS011;38687;43.330;21.924;2022-08-19T10:38:43;4.43;;;3.90;;
52816;SDS011;38687;43.330;21.924;2022-08-19T10:41:14;6.47;;;5.00;;
52816;SDS011;38687;43.330;21.924;2022-08-19T10:43:42;5.65;;;4.05;;
52816;SDS011;38687;43.330;21.924;2022-08-19T10:46:10;4.25;;;3.67;;
52816;SDS011;38687;43.330;21.924;2022-08-19T10:48:37;4.95;;;4.45;;
52816;SDS011;38687;43.330;21.924;2022-08-19T10:51:03;4.88;;;4.30;;
52816;SDS011;38687;43.330;21.924;2022-08-19T10:53:47;3.83;;;3.53;;
52816;SDS011;38687;43.330;21.924;2022-08-19T10:56:13;5.80;;;4.15;;
52816;SDS011;38687;43.330;21.924;2022-08-19T10:58:57;7.03;;;4.53;;
52816;SDS011;38687;43.330;21.924;2022-08-19T11:01:24;6.68;;;4.28;;
52816;SDS011;38687;43.330;21.924;2022-08-19T11:03:50;5.38;;;4.55;;
52816;SDS011;38687;43.330;21.924;2022-08-19T11:06:15;5.60;;;4.18;;
52816;SDS011;38687;43.330;21.924;2022-08-19T11:08:41;4.78;;;3.60;;
52816;SDS011;38687;43.330;21.924;2022-08-19T11:11:09;4.32;;;3.92;;
52816;SDS011;38687;43.330;21.924;2022-08-19T11:13:36;4.22;;;3.40;;
52816;SDS011;38687;43.330;21.924;2022-08-19T11:16:04;4.45;;;4.05;;
52816;SDS011;38687;43.330;21.924;2022-08-19T11:18:32;4.45;;;3.40;;
52816;SDS011;38687;43.330;21.924;2022-08-19T11:21:08;7.05;;;4.13;;
52816;SDS011;38687;43.330;21.924;2022-08-19T11:23:36;3.63;;;3.15;;
52816;SDS011;38687;43.330;21.924;2022-08-19T11:26:01;3.30;;;2.95;;
52816;SDS011;38687;43.330;21.924;2022-08-19T11:28:27;3.25;;;2.95;;
52816;SDS011;38687;43.330;21.924;2022-08-19T11:30:53;4.70;;;3.10;;
52816;SDS011;38687;43.330;21.924;2022-08-19T11:33:19;3.78;;;3.20;;
52816;SDS011;38687;43.330;21.924;2022-08-19T11:35:44;4.93;;;2.97;;
52816;SDS011;38687;43.330;21.924;2022-08-19T11:38:10;3.00;;;2.70;;
52816;SDS011;38687;43.330;21.924;2022-08-19T11:40:36;7.78;;;3.45;;
52816;SDS011;38687;43.330;21.924;2022-08-19T11:43:02;4.15;;;3.20;;
52816;SDS011;38687;43.330;21.924;2022-08-19T11:45:28;3.85;;;3.13;;
52816;SDS011;38687;43.330;21.924;2022-08-19T11:47:54;4.05;;;3.10;;
52816;SDS011;38687;43.330;21.924;2022-08-19T11:50:20;4.07;;;3.22;;
52816;SDS011;38687;43.330;21.924;2022-08-19T11:52:46;3.47;;;2.75;;
52816;SDS011;38687;43.330;21.924;2022-08-19T11:55:12;4.03;;;3.15;;
52816;SDS011;38687;43.330;21.924;2022-08-19T11:57:38;4.60;;;3.25;;
52816;SDS011;38687;43.330;21.924;2022-08-19T12:00:06;3.58;;;2.78;;
52816;SDS011;38687;43.330;21.924;2022-08-19T12:02:32;3.05;;;2.85;;
52816;SDS011;38687;43.330;21.924;2022-08-19T12:04:58;5.43;;;3.15;;
52816;SDS011;38687;43.330;21.924;2022-08-19T12:07:23;5.05;;;2.85;;
52816;SDS011;38687;43.330;21.924;2022-08-19T12:09:49;4.07;;;3.22;;
52816;SDS011;38687;43.330;21.924;2022-08-19T12:12:15;4.60;;;2.45;;
52816;SDS011;38687;43.330;21.924;2022-08-19T12:14:41;5.32;;;2.90;;
52816;SDS011;38687;43.330;21.924;2022-08-19T12:17:06;4.18;;;2.50;;
52816;SDS011;38687;43.330;21.924;2022-08-19T12:19:35;4.18;;;2.45;;
52816;SDS011;38687;43.330;21.924;2022-08-19T12:22:01;3.80;;;2.28;;
52816;SDS011;38687;43.330;21.924;2022-08-19T12:24:29;2.83;;;2.22;;
52816;SDS011;38687;43.330;21.924;2022-08-19T12:26:56;3.83;;;2.70;;
52816;SDS011;38687;43.330;21.924;2022-08-19T12:29:23;2.78;;;2.50;;
52816;SDS011;38687;43.330;21.924;2022-08-19T12:31:53;2.95;;;2.53;;
52816;SDS011;38687;43.330;21.924;2022-08-19T12:34:19;7.35;;;2.72;;
52816;SDS011;38687;43.330;21.924;2022-08-19T12:36:45;5.25;;;2.22;;
52816;SDS011;38687;43.330;21.924;2022-08-19T12:39:10;3.75;;;2.40;;
52816;SDS011;38687;43.330;21.924;2022-08-19T12:41:36;3.25;;;2.95;;
52816;SDS011;38687;43.330;21.924;2022-08-19T12:44:02;4.40;;;2.53;;
52816;SDS011;38687;43.330;21.924;2022-08-19T12:46:28;3.08;;;2.65;;
52816;SDS011;38687;43.330;21.924;2022-08-19T12:48:53;3.70;;;2.50;;
52816;SDS011;38687;43.330;21.924;2022-08-19T12:51:19;2.70;;;2.50;;
52816;SDS011;38687;43.330;21.924;2022-08-19T12:53:45;5.10;;;3.08;;
52816;SDS011;38687;43.330;21.924;2022-08-19T12:56:11;4.50;;;2.40;;
52816;SDS011;38687;43.330;21.924;2022-08-19T12:58:39;12.15;;;3.13;;
52816;SDS011;38687;43.330;21.924;2022-08-19T13:01:16;4.63;;;2.50;;
52816;SDS011;38687;43.330;21.924;2022-08-19T13:03:42;3.10;;;2.50;;
52816;SDS011;38687;43.330;21.924;2022-08-19T13:06:10;4.65;;;2.70;;
52816;SDS011;38687;43.330;21.924;2022-08-19T13:08:35;4.38;;;2.70;;
52816;SDS011;38687;43.330;21.924;2022-08-19T13:11:11;2.88;;;2.65;;
52816;SDS011;38687;43.330;21.924;2022-08-19T13:13:42;4.95;;;2.85;;
52816;SDS011;38687;43.330;21.924;2022-08-19T13:16:09;3.67;;;2.42;;
52816;SDS011;38687;43.330;21.924;2022-08-19T13:18:36;3.90;;;2.80;;
52816;SDS011;38687;43.330;21.924;2022-08-19T13:21:06;3.22;;;2.80;;
52816;SDS011;38687;43.330;21.924;2022-08-19T13:23:33;3.88;;;2.67;;
52816;SDS011;38687;43.330;21.924;2022-08-19T13:26:00;4.82;;;2.72;;
52816;SDS011;38687;43.330;21.924;2022-08-19T13:28:32;4.90;;;2.78;;
52816;SDS011;38687;43.330;21.924;2022-08-19T13:31:20;6.80;;;2.40;;
52816;SDS011;38687;43.330;21.924;2022-08-19T13:34:06;3.03;;;2.75;;
52816;SDS011;38687;43.330;21.924;2022-08-19T13:36:32;3.10;;;2.78;;
52816;SDS011;38687;43.330;21.924;2022-08-19T13:38:58;3.38;;;2.55;;
52816;SDS011;38687;43.330;21.924;2022-08-19T13:41:23;4.65;;;2.47;;
52816;SDS011;38687;43.330;21.924;2022-08-19T13:43:49;4.63;;;2.80;;
52816;SDS011;38687;43.330;21.924;2022-08-19T13:46:15;3.78;;;2.88;;
52816;SDS011;38687;43.330;21.924;2022-08-19T13:48:40;4.78;;;2.45;;
52816;SDS011;38687;43.330;21.924;2022-08-19T13:51:06;3.28;;;2.78;;
52816;SDS011;38687;43.330;21.924;2022-08-19T13:53:35;2.97;;;2.35;;
52816;SDS011;38687;43.330;21.924;2022-08-19T13:56:06;7.38;;;2.72;;
52816;SDS011;38687;43.330;21.924;2022-08-19T13:58:37;3.97;;;2.55;;
52816;SDS011;38687;43.330;21.924;2022-08-19T14:01:03;3.97;;;2.80;;
52816;SDS011;38687;43.330;21.924;2022-08-19T14:03:29;3.20;;;2.78;;
52816;SDS011;38687;43.330;21.924;2022-08-19T14:05:55;9.45;;;5.63;;
52816;SDS011;38687;43.330;21.924;2022-08-19T14:08:21;4.25;;;3.08;;
52816;SDS011;38687;43.330;21.924;2022-08-19T14:10:47;6.00;;;3.30;;
52816;SDS011;38687;43.330;21.924;2022-08-19T14:13:14;3.65;;;3.33;;
52816;SDS011;38687;43.330;21.924;2022-08-19T14:15:42;3.60;;;2.83;;
52816;SDS011;38687;43.330;21.924;2022-08-19T14:18:07;7.07;;;3.63;;
52816;SDS011;38687;43.330;21.924;2022-08-19T14:20:34;5.38;;;3.03;;
52816;SDS011;38687;43.330;21.924;2022-08-19T14:23:00;3.72;;;3.08;;
52816;SDS011;38687;43.330;21.924;2022-08-19T14:25:26;5.38;;;3.20;;
52816;SDS011;38687;43.330;21.924;2022-08-19T14:27:53;4.68;;;3.30;;
52816;SDS011;38687;43.330;21.924;2022-08-19T14:30:20;4.53;;;3.33;;
52816;SDS011;38687;43.330;21.924;2022-08-19T14:32:51;6.78;;;2.90;;
52816;SDS011;38687;43.330;21.924;2022-08-19T14:35:17;4.55;;;2.95;;
52816;SDS011;38687;43.330;21.924;2022-08-19T14:37:43;3.33;;;2.83;;
52816;SDS011;38687;43.330;21.924;2022-08-19T14:40:09;4.13;;;3.05;;
52816;SDS011;38687;43.330;21.924;2022-08-19T14:42:36;5.57;;;3.42;;
52816;SDS011;38687;43.330;21.924;2022-08-19T14:45:02;5.32;;;3.72;;
52816;SDS011;38687;43.330;21.924;2022-08-19T14:47:30;5.65;;;2.97;;